Time;durP1;ratioP1;P1;durP2;ratioP2;P2;SDS_P1;SDS_P2;PMS_P1;PMS_P2;Temp;Humidity;BMP_temperature;BMP_pressure;BME280_temperature;BME280_humidity;BME280_pressure;Samples;Min_cycle;Max_cycle;Signal;HPM_P1;HPM_P2
2021/03/13 00:01:08;;;;;;;0.80;0.60;;;;;;;;;;5033717;28;20486;-70
2021/03/13 00:03:34;;;;;;;0.70;0.50;;;;;;;;;;5033721;28;20456;-69
2021/03/13 00:06:01;;;;;;;0.80;0.53;;;;;;;;;;5033846;28;20433;-71
2021/03/13 00:08:27;;;;;;;0.70;0.60;;;;;;;;;;5034120;28;20769;-69
2021/03/13 00:10:53;;;;;;;0.70;0.40;;;;;;;;;;5033507;28;20417;-71
2021/03/13 00:13:19;;;;;;;0.70;0.50;;;;;;;;;;5033496;28;20381;-70
2021/03/13 00:15:45;;;;;;;0.70;0.40;;;;;;;;;;5015973;28;20415;-71
2021/03/13 00:18:11;;;;;;;0.70;0.40;;;;;;;;;;5033652;28;20378;-70
2021/03/13 00:20:38;;;;;;;0.70;0.50;;;;;;;;;;5015541;28;20418;-70
2021/03/13 00:23:04;;;;;;;0.70;0.40;;;;;;;;;;5033140;28;20415;-70
2021/03/13 00:25:31;;;;;;;0.80;0.50;;;;;;;;;;5035006;22;20434;-72
2021/03/13 00:27:58;;;;;;;0.70;0.50;;;;;;;;;;5060150;28;20486;-72
2021/03/13 00:30:24;;;;;;;0.70;0.50;;;;;;;;;;5078171;28;20395;-73
2021/03/13 00:32:51;;;;;;;0.70;0.50;;;;;;;;;;5066269;28;20896;-72
2021/03/13 00:35:17;;;;;;;1.03;0.50;;;;;;;;;;5059980;28;20405;-72
2021/03/13 00:37:43;;;;;;;0.83;0.60;;;;;;;;;;5050157;28;20426;-74
2021/03/13 00:40:11;;;;;;;1.53;0.63;;;;;;;;;;5065832;28;20443;-73
2021/03/13 00:42:37;;;;;;;0.70;0.50;;;;;;;;;;5075024;28;20940;-71
2021/03/13 00:45:03;;;;;;;0.70;0.50;;;;;;;;;;5081229;28;20438;-69
2021/03/13 00:47:29;;;;;;;0.70;0.50;;;;;;;;;;5099370;28;20427;-70
2021/03/13 00:49:55;;;;;;;0.70;0.43;;;;;;;;;;5078695;28;20422;-72
2021/03/13 00:52:21;;;;;;;0.80;0.60;;;;;;;;;;5092570;28;20414;-70
2021/03/13 00:54:49;;;;;;;0.70;0.40;;;;;;;;;;5078141;28;20406;-70
2021/03/13 00:57:15;;;;;;;0.70;0.50;;;;;;;;;;5076092;28;20506;-71
2021/03/13 00:59:41;;;;;;;0.70;0.40;;;;;;;;;;5070477;28;20418;-71
2021/03/13 01:02:07;;;;;;;0.70;0.40;;;;;;;;;;5069700;28;20460;-69
2021/03/13 01:04:33;;;;;;;0.70;0.50;;;;;;;;;;5093481;28;20471;-71
2021/03/13 01:06:59;;;;;;;0.80;0.60;;;;;;;;;;5089942;28;20396;-71
2021/03/13 01:09:26;;;;;;;0.70;0.50;;;;;;;;;;5057258;28;20421;-73
2021/03/13 01:11:52;;;;;;;0.70;0.40;;;;;;;;;;5073580;23;20498;-72
2021/03/13 01:14:18;;;;;;;0.70;0.50;;;;;;;;;;5065148;28;20976;-70
2021/03/13 01:16:44;;;;;;;0.70;0.50;;;;;;;;;;5082153;28;20834;-71
2021/03/13 01:19:10;;;;;;;0.70;0.50;;;;;;;;;;5081782;28;20405;-70
2021/03/13 01:21:36;;;;;;;0.80;0.77;;;;;;;;;;5080139;28;20432;-70
2021/03/13 01:24:02;;;;;;;0.70;0.40;;;;;;;;;;5082300;28;20809;-70
2021/03/13 01:26:28;;;;;;;0.70;0.43;;;;;;;;;;5081814;28;20393;-70
2021/03/13 01:28:54;;;;;;;0.70;0.50;;;;;;;;;;5077853;28;20400;-71
2021/03/13 01:31:20;;;;;;;1.07;0.97;;;;;;;;;;5077497;28;20860;-72
2021/03/13 01:33:46;;;;;;;0.70;0.47;;;;;;;;;;5062625;28;20469;-70
2021/03/13 01:36:12;;;;;;;0.70;0.50;;;;;;;;;;5079352;28;20470;-69
2021/03/13 01:38:38;;;;;;;0.70;0.50;;;;;;;;;;5082385;28;20406;-69
2021/03/13 01:41:04;;;;;;;0.80;0.77;;;;;;;;;;5059399;28;20523;-70
2021/03/13 01:43:30;;;;;;;1.37;1.27;;;;;;;;;;5062973;28;20450;-70
2021/03/13 01:45:56;;;;;;;0.70;0.50;;;;;;;;;;5063806;28;20423;-69
2021/03/13 01:48:32;;;;;;;0.70;0.40;;;;;;;;;;5080494;28;20396;-69
2021/03/13 01:50:59;;;;;;;0.70;0.50;;;;;;;;;;5071141;28;20420;-70
2021/03/13 01:53:25;;;;;;;0.70;0.50;;;;;;;;;;5076055;28;20407;-70
2021/03/13 01:55:51;;;;;;;0.70;0.50;;;;;;;;;;5080096;28;20461;-70
2021/03/13 01:58:17;;;;;;;0.90;0.70;;;;;;;;;;5079942;28;20417;-70
2021/03/13 02:00:43;;;;;;;0.77;0.60;;;;;;;;;;5081529;28;20415;-70
2021/03/13 02:03:08;;;;;;;0.70;0.50;;;;;;;;;;5080837;28;20429;-70
2021/03/13 02:05:40;;;;;;;0.70;0.50;;;;;;;;;;5079923;28;20421;-70
2021/03/13 02:08:06;;;;;;;0.77;0.60;;;;;;;;;;5079174;28;20412;-71
2021/03/13 02:10:51;;;;;;;0.70;0.50;;;;;;;;;;5080065;28;20478;-70
2021/03/13 02:13:22;;;;;;;0.70;0.43;;;;;;;;;;5081606;28;20402;-71
2021/03/13 02:15:56;;;;;;;0.70;0.50;;;;;;;;;;5080710;28;20561;-70
2021/03/13 02:18:22;;;;;;;0.70;0.50;;;;;;;;;;5078013;28;20402;-69
2021/03/13 02:21:01;;;;;;;1.13;1.03;;;;;;;;;;5080589;28;21109;-71
2021/03/13 02:23:28;;;;;;;0.70;0.50;;;;;;;;;;5078638;28;20957;-70
2021/03/13 02:26:17;;;;;;;0.80;0.50;;;;;;;;;;5079812;28;20855;-69
2021/03/13 02:29:15;;;;;;;0.70;0.50;;;;;;;;;;5042153;28;20412;-70
2021/03/13 02:31:42;;;;;;;0.80;0.70;;;;;;;;;;5081365;28;20395;-71
2021/03/13 02:34:09;;;;;;;0.80;0.53;;;;;;;;;;5062517;28;20403;-71
2021/03/13 02:36:35;;;;;;;0.70;0.40;;;;;;;;;;5079442;28;20455;-70
2021/03/13 02:39:03;;;;;;;0.70;0.50;;;;;;;;;;5081589;28;20490;-71
2021/03/13 02:41:33;;;;;;;0.80;0.60;;;;;;;;;;5061563;28;20410;-70
2021/03/13 02:44:01;;;;;;;0.90;0.53;;;;;;;;;;5079544;28;20895;-70
2021/03/13 02:46:27;;;;;;;0.80;0.67;;;;;;;;;;5080670;28;20830;-71
2021/03/13 02:48:54;;;;;;;1.13;1.03;;;;;;;;;;5081769;28;20419;-70
2021/03/13 02:51:21;;;;;;;0.70;0.50;;;;;;;;;;5051009;28;20424;-70
2021/03/13 02:53:48;;;;;;;0.70;0.50;;;;;;;;;;5073726;28;20415;-70
2021/03/13 02:56:16;;;;;;;0.87;0.87;;;;;;;;;;5069385;28;20442;-70
2021/03/13 02:58:43;;;;;;;0.80;0.63;;;;;;;;;;5075688;28;20499;-70
2021/03/13 03:01:09;;;;;;;0.70;0.60;;;;;;;;;;5078851;28;20443;-70
2021/03/13 03:03:37;;;;;;;0.70;0.50;;;;;;;;;;5053654;28;20483;-71
2021/03/13 03:06:03;;;;;;;1.73;0.70;;;;;;;;;;5073941;28;20404;-70
2021/03/13 03:08:30;;;;;;;0.70;0.40;;;;;;;;;;5056806;28;20412;-70
2021/03/13 03:10:56;;;;;;;0.70;0.50;;;;;;;;;;5071277;28;20433;-71
2021/03/13 03:13:25;;;;;;;0.70;0.57;;;;;;;;;;5069805;28;20853;-70
2021/03/13 03:15:51;;;;;;;0.70;0.40;;;;;;;;;;5076096;28;20409;-71
2021/03/13 03:18:18;;;;;;;0.70;0.50;;;;;;;;;;5075478;28;20732;-71
2021/03/13 03:20:47;;;;;;;0.70;0.50;;;;;;;;;;5074402;28;20881;-70
2021/03/13 03:23:13;;;;;;;0.70;0.40;;;;;;;;;;5074626;28;20452;-69
2021/03/13 03:25:39;;;;;;;0.80;0.80;;;;;;;;;;5074544;28;20426;-70
2021/03/13 03:28:05;;;;;;;0.80;0.60;;;;;;;;;;5070582;28;20398;-70
2021/03/13 03:30:32;;;;;;;0.70;0.40;;;;;;;;;;5070314;28;20382;-70
2021/03/13 03:32:58;;;;;;;0.70;0.40;;;;;;;;;;5074164;28;20381;-71
2021/03/13 03:35:24;;;;;;;0.90;0.90;;;;;;;;;;5056378;28;20442;-71
2021/03/13 03:37:52;;;;;;;0.93;0.70;;;;;;;;;;5074114;28;20439;-71
2021/03/13 03:40:19;;;;;;;0.80;0.63;;;;;;;;;;5074046;28;20407;-70
2021/03/13 03:42:47;;;;;;;1.00;0.60;;;;;;;;;;5035367;28;20509;-71
2021/03/13 03:45:15;;;;;;;0.70;0.50;;;;;;;;;;5053660;28;20396;-70
2021/03/13 03:47:41;;;;;;;0.70;0.57;;;;;;;;;;5036038;28;20407;-70
2021/03/13 03:50:07;;;;;;;0.70;0.50;;;;;;;;;;5053679;28;20436;-70
2021/03/13 03:52:33;;;;;;;2.10;0.90;;;;;;;;;;5053581;28;20415;-69
2021/03/13 03:55:00;;;;;;;0.70;0.50;;;;;;;;;;5062689;28;20410;-69
2021/03/13 03:57:27;;;;;;;0.80;0.50;;;;;;;;;;5055467;28;21000;-70
2021/03/13 03:59:53;;;;;;;0.70;0.50;;;;;;;;;;5073263;28;20403;-70
2021/03/13 04:02:21;;;;;;;0.90;0.80;;;;;;;;;;5073090;28;21063;-70
2021/03/13 04:04:48;;;;;;;5.17;0.80;;;;;;;;;;5073678;28;20412;-71
2021/03/13 04:07:14;;;;;;;1.23;1.10;;;;;;;;;;5073273;28;20781;-70
2021/03/13 04:09:40;;;;;;;0.87;0.77;;;;;;;;;;5073472;28;20376;-70
2021/03/13 04:12:08;;;;;;;0.70;0.50;;;;;;;;;;5072850;28;20434;-70
2021/03/13 04:14:35;;;;;;;2.30;1.80;;;;;;;;;;5073390;28;20403;-70
2021/03/13 04:17:01;;;;;;;0.90;0.67;;;;;;;;;;5072616;28;20776;-70
2021/03/13 04:19:28;;;;;;;1.27;1.17;;;;;;;;;;5055163;28;20461;-69
2021/03/13 04:21:54;;;;;;;0.70;0.40;;;;;;;;;;5072833;28;20454;-70
2021/03/13 04:24:20;;;;;;;0.77;0.63;;;;;;;;;;5073156;28;20959;-70
2021/03/13 04:26:46;;;;;;;0.80;0.60;;;;;;;;;;5073114;28;20416;-69
2021/03/13 04:29:13;;;;;;;0.70;0.43;;;;;;;;;;5073131;28;20404;-70
2021/03/13 04:31:40;;;;;;;2.50;2.10;;;;;;;;;;5072690;28;20420;-69
2021/03/13 04:34:06;;;;;;;0.70;0.50;;;;;;;;;;5073176;28;20406;-69
2021/03/13 04:36:32;;;;;;;0.80;0.60;;;;;;;;;;5073165;28;20916;-69
2021/03/13 04:39:00;;;;;;;0.70;0.60;;;;;;;;;;5073355;28;20922;-69
2021/03/13 04:41:27;;;;;;;1.63;0.90;;;;;;;;;;5072669;28;20403;-69
2021/03/13 04:43:53;;;;;;;1.33;1.23;;;;;;;;;;5072965;28;20817;-72
2021/03/13 04:46:20;;;;;;;0.70;0.60;;;;;;;;;;5072947;28;20455;-71
2021/03/13 04:48:46;;;;;;;1.10;1.00;;;;;;;;;;5064874;28;20427;-70
2021/03/13 04:51:17;;;;;;;0.70;0.50;;;;;;;;;;5072312;28;20439;-69
2021/03/13 04:53:43;;;;;;;0.70;0.50;;;;;;;;;;5072485;28;20912;-69
2021/03/13 04:56:10;;;;;;;2.23;1.20;;;;;;;;;;5064606;28;20531;-70
2021/03/13 04:58:36;;;;;;;0.97;0.50;;;;;;;;;;5072334;28;20949;-69
2021/03/13 05:01:02;;;;;;;0.70;0.50;;;;;;;;;;5064529;28;20440;-70
2021/03/13 05:03:28;;;;;;;1.13;0.70;;;;;;;;;;5072067;28;20764;-70
2021/03/13 05:05:54;;;;;;;2.03;0.77;;;;;;;;;;5072247;28;20475;-67
2021/03/13 05:08:19;;;;;;;1.77;1.00;;;;;;;;;;5072385;28;20397;-70
2021/03/13 05:10:46;;;;;;;1.63;1.20;;;;;;;;;;5071750;28;20421;-71
2021/03/13 05:13:12;;;;;;;0.83;0.83;;;;;;;;;;5072113;28;20496;-70
2021/03/13 05:15:38;;;;;;;1.67;1.57;;;;;;;;;;5072139;28;20394;-70
2021/03/13 05:18:04;;;;;;;2.03;1.10;;;;;;;;;;5072041;28;20406;-69
2021/03/13 05:20:30;;;;;;;1.30;0.60;;;;;;;;;;5072417;28;20428;-69
2021/03/13 05:22:56;;;;;;;2.30;0.70;;;;;;;;;;5056470;28;20450;-69
2021/03/13 05:25:22;;;;;;;3.27;1.00;;;;;;;;;;5063165;28;20418;-68
2021/03/13 05:27:48;;;;;;;1.10;0.60;;;;;;;;;;5080226;28;20398;-69
2021/03/13 05:30:14;;;;;;;1.57;1.20;;;;;;;;;;5082139;28;20497;-69
2021/03/13 05:32:40;;;;;;;0.80;0.80;;;;;;;;;;5081113;28;20407;-69
2021/03/13 05:35:07;;;;;;;0.90;0.73;;;;;;;;;;5081041;28;20752;-68
2021/03/13 05:37:33;;;;;;;0.90;0.70;;;;;;;;;;5082412;28;20503;-69
2021/03/13 05:39:59;;;;;;;1.23;0.97;;;;;;;;;;5081611;28;20428;-70
2021/03/13 05:42:27;;;;;;;1.00;0.60;;;;;;;;;;5081651;28;20618;-69
2021/03/13 05:44:54;;;;;;;0.70;0.50;;;;;;;;;;5078148;28;20490;-69
2021/03/13 05:47:20;;;;;;;1.00;0.80;;;;;;;;;;5076569;28;20808;-69
2021/03/13 05:49:49;;;;;;;1.03;0.80;;;;;;;;;;5058647;28;21100;-69
2021/03/13 05:52:19;;;;;;;0.97;0.80;;;;;;;;;;5057216;28;20892;-70
2021/03/13 05:54:46;;;;;;;1.20;0.70;;;;;;;;;;5079753;28;20434;-68
2021/03/13 05:57:12;;;;;;;0.80;0.60;;;;;;;;;;5082203;28;20395;-70
2021/03/13 05:59:38;;;;;;;2.07;1.87;;;;;;;;;;5080535;28;20406;-68
2021/03/13 06:02:05;;;;;;;0.70;0.50;;;;;;;;;;5075765;28;20469;-69
2021/03/13 06:04:31;;;;;;;2.30;0.80;;;;;;;;;;5077684;28;20411;-68
2021/03/13 06:06:59;;;;;;;0.77;0.70;;;;;;;;;;5080955;28;20432;-70
2021/03/13 06:09:25;;;;;;;1.17;1.07;;;;;;;;;;5079032;28;20409;-69
2021/03/13 06:11:52;;;;;;;0.70;0.50;;;;;;;;;;5081322;28;20423;-72
2021/03/13 06:14:18;;;;;;;2.20;1.13;;;;;;;;;;5080093;28;20412;-71
2021/03/13 06:16:44;;;;;;;0.80;0.60;;;;;;;;;;5080331;28;20443;-70
2021/03/13 06:19:10;;;;;;;1.73;1.63;;;;;;;;;;5081881;28;20407;-70
2021/03/13 06:21:37;;;;;;;0.97;0.97;;;;;;;;;;5076561;28;20407;-71
2021/03/13 06:24:32;;;;;;;3.03;2.93;;;;;;;;;;5080638;28;20395;-70
2021/03/13 06:26:59;;;;;;;3.53;1.00;;;;;;;;;;5079811;28;20466;-71
2021/03/13 06:29:26;;;;;;;1.50;0.97;;;;;;;;;;5072144;22;20485;-70
2021/03/13 06:32:07;;;;;;;0.90;0.70;;;;;;;;;;5023433;28;20424;-71
2021/03/13 06:34:33;;;;;;;0.70;0.50;;;;;;;;;;5039766;28;20488;-71
2021/03/13 06:37:18;;;;;;;0.70;0.50;;;;;;;;;;5040900;28;20783;-69
2021/03/13 06:39:44;;;;;;;0.80;0.60;;;;;;;;;;5032687;28;20495;-70
2021/03/13 06:42:23;;;;;;;1.90;1.50;;;;;;;;;;5044395;28;20443;-72
2021/03/13 06:45:04;;;;;;;0.90;0.60;;;;;;;;;;5025145;28;20419;-72
2021/03/13 06:47:41;;;;;;;1.40;0.90;;;;;;;;;;5040103;28;20414;-70
2021/03/13 06:50:15;;;;;;;0.93;0.83;;;;;;;;;;5037014;28;20455;-72
2021/03/13 06:52:42;;;;;;;0.70;0.50;;;;;;;;;;5037926;28;20903;-72
2021/03/13 06:55:14;;;;;;;0.80;0.60;;;;;;;;;;5036725;28;20934;-72
2021/03/13 06:57:40;;;;;;;1.13;0.90;;;;;;;;;;5036192;28;20415;-72
2021/03/13 07:00:06;;;;;;;1.77;1.07;;;;;;;;;;5038785;28;20908;-71
2021/03/13 07:02:32;;;;;;;0.70;0.50;;;;;;;;;;5041324;28;20457;-71
2021/03/13 07:05:07;;;;;;;1.30;0.83;;;;;;;;;;5040477;28;20412;-71
2021/03/13 07:07:33;;;;;;;0.70;0.50;;;;;;;;;;5042054;28;20716;-71
2021/03/13 07:09:59;;;;;;;0.70;0.60;;;;;;;;;;5040937;28;20422;-72
2021/03/13 07:12:25;;;;;;;1.37;0.70;;;;;;;;;;5040621;28;20407;-69
2021/03/13 07:14:52;;;;;;;0.70;0.70;;;;;;;;;;5039504;28;20766;-71
2021/03/13 07:17:18;;;;;;;1.03;0.90;;;;;;;;;;5040647;28;21173;-72
2021/03/13 07:19:44;;;;;;;0.80;0.50;;;;;;;;;;5040832;28;20460;-71
2021/03/13 07:22:14;;;;;;;1.20;0.70;;;;;;;;;;5038747;28;20450;-71
2021/03/13 07:24:49;;;;;;;1.93;0.90;;;;;;;;;;5040137;28;20412;-71
2021/03/13 07:27:18;;;;;;;0.90;0.57;;;;;;;;;;5015313;28;20395;-72
2021/03/13 07:29:45;;;;;;;0.80;0.70;;;;;;;;;;5031949;28;20476;-71
2021/03/13 07:32:15;;;;;;;3.33;1.10;;;;;;;;;;5036170;28;20414;-71
2021/03/13 07:34:41;;;;;;;0.80;0.60;;;;;;;;;;5039412;28;20880;-71
2021/03/13 07:37:08;;;;;;;0.70;0.50;;;;;;;;;;5041027;28;20410;-72
2021/03/13 07:39:35;;;;;;;0.70;0.50;;;;;;;;;;5040053;28;20403;-71
2021/03/13 07:42:17;;;;;;;1.73;1.63;;;;;;;;;;5040374;28;20430;-71
2021/03/13 07:44:44;;;;;;;0.70;0.40;;;;;;;;;;5039957;28;20412;-72
2021/03/13 07:47:11;;;;;;;1.30;0.60;;;;;;;;;;5044899;28;20399;-73
2021/03/13 07:49:38;;;;;;;0.70;0.50;;;;;;;;;;5036585;28;20401;-74
2021/03/13 07:52:05;;;;;;;0.80;0.70;;;;;;;;;;5038832;28;20414;-69
2021/03/13 07:54:32;;;;;;;0.70;0.50;;;;;;;;;;5037942;28;20443;-70
2021/03/13 07:57:00;;;;;;;0.70;0.40;;;;;;;;;;5043549;28;20401;-71
2021/03/13 07:59:46;;;;;;;1.43;1.27;;;;;;;;;;5042348;28;20463;-70
2021/03/13 08:02:30;;;;;;;0.70;0.50;;;;;;;;;;5044592;28;20531;-71
2021/03/13 08:04:57;;;;;;;1.23;1.13;;;;;;;;;;5040978;28;20597;-72
2021/03/13 08:07:43;;;;;;;0.70;0.50;;;;;;;;;;5042799;28;20815;-71
2021/03/13 08:10:09;;;;;;;0.70;0.47;;;;;;;;;;5033679;28;20433;-72
2021/03/13 08:12:40;;;;;;;0.73;0.63;;;;;;;;;;5043868;28;20425;-71
2021/03/13 08:15:11;;;;;;;0.97;0.73;;;;;;;;;;5033744;28;20452;-71
2021/03/13 08:17:41;;;;;;;0.70;0.40;;;;;;;;;;5033049;28;20408;-72
2021/03/13 08:20:08;;;;;;;1.73;1.00;;;;;;;;;;5033751;28;20496;-72
2021/03/13 08:22:34;;;;;;;1.27;0.70;;;;;;;;;;5032879;28;20448;-71
2021/03/13 08:25:00;;;;;;;0.70;0.40;;;;;;;;;;5033212;28;20500;-70
2021/03/13 08:27:38;;;;;;;0.70;0.50;;;;;;;;;;5032797;28;20467;-70
2021/03/13 08:30:16;;;;;;;0.80;0.70;;;;;;;;;;5032772;28;20413;-71
2021/03/13 08:33:02;;;;;;;0.70;0.50;;;;;;;;;;5031762;28;20411;-72
2021/03/13 08:35:38;;;;;;;0.70;0.50;;;;;;;;;;5031226;28;20402;-71
2021/03/13 08:38:04;;;;;;;0.70;0.50;;;;;;;;;;5034738;28;20381;-71
2021/03/13 08:40:31;;;;;;;0.70;0.40;;;;;;;;;;5042200;28;20395;-71
2021/03/13 08:42:57;;;;;;;1.83;0.60;;;;;;;;;;5034839;28;20863;-72
2021/03/13 08:45:23;;;;;;;0.70;0.40;;;;;;;;;;5032560;28;20401;-72
2021/03/13 08:47:52;;;;;;;0.70;0.40;;;;;;;;;;5033282;28;20409;-72
2021/03/13 08:50:38;;;;;;;0.70;0.50;;;;;;;;;;5032189;28;20913;-71
2021/03/13 08:53:23;;;;;;;0.70;0.50;;;;;;;;;;5031618;28;20413;-72
2021/03/13 08:55:49;;;;;;;0.80;0.67;;;;;;;;;;5030368;28;20410;-72
2021/03/13 08:58:34;;;;;;;0.90;0.67;;;;;;;;;;5015710;28;20934;-71
2021/03/13 09:01:19;;;;;;;0.73;0.50;;;;;;;;;;5030715;28;20432;-71
2021/03/13 09:03:49;;;;;;;0.70;0.40;;;;;;;;;;5032338;28;20461;-73
2021/03/13 09:06:16;;;;;;;0.70;0.50;;;;;;;;;;5029762;28;20388;-70
2021/03/13 09:08:42;;;;;;;0.70;0.50;;;;;;;;;;5032255;28;20433;-72
2021/03/13 09:11:08;;;;;;;0.70;0.50;;;;;;;;;;5031936;28;20973;-71
2021/03/13 09:13:34;;;;;;;0.70;0.40;;;;;;;;;;5032132;28;20408;-71
2021/03/13 09:16:00;;;;;;;0.70;0.50;;;;;;;;;;5032026;28;20945;-70
2021/03/13 09:18:25;;;;;;;0.70;0.50;;;;;;;;;;5038717;28;20512;-71
2021/03/13 09:20:51;;;;;;;0.70;0.40;;;;;;;;;;5048692;28;20897;-71
2021/03/13 09:23:17;;;;;;;0.70;0.50;;;;;;;;;;5045560;28;21048;-70
2021/03/13 09:25:43;;;;;;;1.90;0.60;;;;;;;;;;5041968;28;20407;-71
2021/03/13 09:28:09;;;;;;;0.70;0.50;;;;;;;;;;5042879;28;20446;-70
2021/03/13 09:30:35;;;;;;;0.70;0.50;;;;;;;;;;5038178;28;20425;-69
2021/03/13 09:33:01;;;;;;;0.80;0.60;;;;;;;;;;5041983;28;20392;-71
2021/03/13 09:35:28;;;;;;;0.70;0.50;;;;;;;;;;5024482;28;20491;-70
2021/03/13 09:37:54;;;;;;;0.70;0.40;;;;;;;;;;5040578;28;20407;-71
2021/03/13 09:40:29;;;;;;;0.80;0.50;;;;;;;;;;5042979;28;20434;-70
2021/03/13 09:42:55;;;;;;;0.70;0.50;;;;;;;;;;5038116;28;20504;-71
2021/03/13 09:45:25;;;;;;;0.70;0.50;;;;;;;;;;5041794;28;20414;-71
2021/03/13 09:47:56;;;;;;;0.70;0.40;;;;;;;;;;5042309;28;20384;-71
2021/03/13 09:50:25;;;;;;;3.00;1.70;;;;;;;;;;5041303;28;20373;-70
2021/03/13 09:52:51;;;;;;;0.70;0.50;;;;;;;;;;5037249;28;20416;-70
2021/03/13 09:55:27;;;;;;;0.70;0.40;;;;;;;;;;5040693;28;20508;-71
2021/03/13 09:57:54;;;;;;;0.70;0.50;;;;;;;;;;5040570;28;20384;-70
2021/03/13 10:00:20;;;;;;;0.70;0.50;;;;;;;;;;5042444;28;20390;-70
2021/03/13 10:02:47;;;;;;;0.70;0.40;;;;;;;;;;5042700;28;20494;-70
2021/03/13 10:05:16;;;;;;;0.70;0.50;;;;;;;;;;5040325;28;20386;-70
2021/03/13 10:07:43;;;;;;;0.70;0.40;;;;;;;;;;5041742;28;20911;-70
2021/03/13 10:10:10;;;;;;;0.70;0.50;;;;;;;;;;5040199;28;20458;-68
2021/03/13 10:12:37;;;;;;;4.20;1.47;;;;;;;;;;5038641;28;20412;-70
2021/03/13 10:15:19;;;;;;;3.80;0.60;;;;;;;;;;5047435;28;20380;-69
2021/03/13 10:18:03;;;;;;;0.70;0.50;;;;;;;;;;5042809;28;21306;-70
2021/03/13 10:20:38;;;;;;;0.70;0.60;;;;;;;;;;5043693;28;20446;-71
2021/03/13 10:23:08;;;;;;;0.70;0.50;;;;;;;;;;5051436;28;20424;-71
2021/03/13 10:25:35;;;;;;;0.70;0.50;;;;;;;;;;5041187;28;20891;-70
2021/03/13 10:28:05;;;;;;;0.70;0.50;;;;;;;;;;5041472;28;20378;-72
2021/03/13 10:30:31;;;;;;;0.70;0.50;;;;;;;;;;5043780;28;20402;-72
2021/03/13 10:32:57;;;;;;;0.70;0.50;;;;;;;;;;5041974;28;20396;-71
2021/03/13 10:35:27;;;;;;;0.70;0.40;;;;;;;;;;5043532;28;20446;-71
2021/03/13 10:37:53;;;;;;;0.70;0.40;;;;;;;;;;5039239;28;20431;-70
2021/03/13 10:40:30;;;;;;;3.63;1.13;;;;;;;;;;5037420;28;20436;-72
2021/03/13 10:43:16;;;;;;;0.70;0.40;;;;;;;;;;5038779;28;20452;-71
2021/03/13 10:45:42;;;;;;;0.70;0.50;;;;;;;;;;5040682;28;20419;-72
2021/03/13 10:48:09;;;;;;;0.70;0.40;;;;;;;;;;5036046;28;21002;-72
2021/03/13 10:50:36;;;;;;;0.70;0.50;;;;;;;;;;5037471;28;20412;-73
2021/03/13 10:53:20;;;;;;;5.43;1.23;;;;;;;;;;5036775;28;20767;-71
2021/03/13 10:55:53;;;;;;;0.70;0.50;;;;;;;;;;5036841;28;20399;-72
2021/03/13 10:58:25;;;;;;;0.70;0.40;;;;;;;;;;5038245;28;20458;-71
2021/03/13 11:00:51;;;;;;;0.70;0.40;;;;;;;;;;5041344;28;20890;-71
2021/03/13 11:03:18;;;;;;;0.80;0.50;;;;;;;;;;5036310;28;20895;-71
2021/03/13 11:05:44;;;;;;;1.10;0.90;;;;;;;;;;5038078;28;20440;-71
2021/03/13 11:08:12;;;;;;;0.70;0.50;;;;;;;;;;5034158;28;20919;-71
2021/03/13 11:10:39;;;;;;;2.50;0.80;;;;;;;;;;5030420;28;20546;-71
2021/03/13 11:13:05;;;;;;;0.70;0.50;;;;;;;;;;5033243;28;20423;-71
2021/03/13 11:15:31;;;;;;;0.70;0.53;;;;;;;;;;5031000;28;20382;-69
2021/03/13 11:17:57;;;;;;;0.80;0.57;;;;;;;;;;5027470;28;20933;-71
2021/03/13 11:20:23;;;;;;;0.70;0.50;;;;;;;;;;5030511;28;20466;-71
2021/03/13 11:22:49;;;;;;;0.70;0.50;;;;;;;;;;5030614;28;20475;-70
2021/03/13 11:25:15;;;;;;;0.70;0.40;;;;;;;;;;5048705;28;20438;-71
2021/03/13 11:27:41;;;;;;;0.70;0.40;;;;;;;;;;5040972;28;20435;-70
2021/03/13 11:30:08;;;;;;;0.70;0.50;;;;;;;;;;5041593;28;20986;-71
2021/03/13 11:32:34;;;;;;;0.70;0.60;;;;;;;;;;5040695;28;20385;-72
2021/03/13 11:35:00;;;;;;;0.80;0.50;;;;;;;;;;5044681;28;20417;-71
2021/03/13 11:37:28;;;;;;;0.70;0.40;;;;;;;;;;5036398;28;20390;-71
2021/03/13 11:39:54;;;;;;;0.70;0.50;;;;;;;;;;5041473;28;20924;-71
2021/03/13 11:42:20;;;;;;;0.80;0.60;;;;;;;;;;5051813;28;20519;-70
2021/03/13 11:44:46;;;;;;;0.70;0.50;;;;;;;;;;5054454;28;20777;-70
2021/03/13 11:47:12;;;;;;;0.70;0.40;;;;;;;;;;5053256;28;20392;-71
2021/03/13 11:49:38;;;;;;;0.70;0.40;;;;;;;;;;5052475;28;20429;-71
2021/03/13 11:52:04;;;;;;;0.70;0.40;;;;;;;;;;5033187;28;20423;-71
2021/03/13 11:54:30;;;;;;;0.70;0.60;;;;;;;;;;5040488;28;20863;-71
2021/03/13 11:56:56;;;;;;;0.70;0.50;;;;;;;;;;5042856;28;20414;-72
2021/03/13 11:59:22;;;;;;;0.70;0.50;;;;;;;;;;5048314;28;20521;-71
2021/03/13 12:01:48;;;;;;;0.70;0.47;;;;;;;;;;5042568;28;20452;-70
2021/03/13 12:04:14;;;;;;;0.70;0.40;;;;;;;;;;5039970;28;20373;-71
2021/03/13 12:06:40;;;;;;;0.70;0.50;;;;;;;;;;5038626;28;20375;-71
2021/03/13 12:09:06;;;;;;;0.70;0.40;;;;;;;;;;5030880;28;20401;-71
2021/03/13 12:11:32;;;;;;;0.70;0.60;;;;;;;;;;5014129;28;20798;-72
2021/03/13 12:13:58;;;;;;;0.70;0.50;;;;;;;;;;5015552;28;20380;-72
2021/03/13 12:16:24;;;;;;;0.70;0.40;;;;;;;;;;5043575;28;20379;-71
2021/03/13 12:18:51;;;;;;;0.80;0.60;;;;;;;;;;5044057;28;20398;-71
2021/03/13 12:21:17;;;;;;;0.70;0.47;;;;;;;;;;5041728;28;20417;-71
2021/03/13 12:23:43;;;;;;;0.70;0.50;;;;;;;;;;5050263;28;20824;-72
2021/03/13 12:26:09;;;;;;;0.80;0.60;;;;;;;;;;5041068;28;20410;-71
2021/03/13 12:28:35;;;;;;;0.70;0.50;;;;;;;;;;5050791;22;20852;-78
2021/03/13 12:31:01;;;;;;;0.70;0.50;;;;;;;;;;5100345;28;20424;-79
2021/03/13 12:33:27;;;;;;;0.70;0.40;;;;;;;;;;5069596;28;20384;-79
2021/03/13 12:35:53;;;;;;;0.70;0.40;;;;;;;;;;5067258;28;20407;-79
2021/03/13 12:38:19;;;;;;;0.80;0.73;;;;;;;;;;5084061;28;20386;-79
2021/03/13 12:40:45;;;;;;;0.70;0.50;;;;;;;;;;5068477;28;20468;-79
2021/03/13 12:43:11;;;;;;;2.50;0.80;;;;;;;;;;5097052;28;20482;-80
2021/03/13 12:45:37;;;;;;;3.90;3.13;;;;;;;;;;5094919;28;20353;-78
2021/03/13 12:48:03;;;;;;;0.70;0.50;;;;;;;;;;5096187;28;20400;-80
2021/03/13 12:50:29;;;;;;;0.70;0.40;;;;;;;;;;5081950;28;20429;-80
2021/03/13 12:52:55;;;;;;;0.70;0.40;;;;;;;;;;5099855;28;20402;-79
2021/03/13 12:55:21;;;;;;;0.70;0.50;;;;;;;;;;5099251;28;20396;-80
2021/03/13 12:57:47;;;;;;;0.70;0.40;;;;;;;;;;5080923;28;20425;-80
2021/03/13 13:00:14;;;;;;;0.70;0.40;;;;;;;;;;5098634;28;20436;-80
2021/03/13 13:02:40;;;;;;;0.70;0.40;;;;;;;;;;5061729;28;20541;-80
2021/03/13 13:05:06;;;;;;;0.70;0.40;;;;;;;;;;5065459;28;20442;-80
2021/03/13 13:07:32;;;;;;;0.70;0.50;;;;;;;;;;5063111;28;20406;-81
2021/03/13 13:09:58;;;;;;;1.03;0.93;;;;;;;;;;5053344;28;20494;-80
2021/03/13 13:12:24;;;;;;;0.70;0.40;;;;;;;;;;5060207;28;20369;-80
2021/03/13 13:14:50;;;;;;;0.70;0.50;;;;;;;;;;5041980;28;20470;-80
2021/03/13 13:17:16;;;;;;;0.70;0.50;;;;;;;;;;5059317;28;20795;-80
2021/03/13 13:19:42;;;;;;;0.80;0.60;;;;;;;;;;5064665;28;20389;-81
2021/03/13 13:22:08;;;;;;;0.70;0.50;;;;;;;;;;5049704;28;20496;-80
2021/03/13 13:24:34;;;;;;;0.70;0.43;;;;;;;;;;5059876;28;20388;-79
2021/03/13 13:27:00;;;;;;;0.70;0.50;;;;;;;;;;5048179;23;20473;-70
2021/03/13 13:29:26;;;;;;;0.93;0.60;;;;;;;;;;5014311;28;20409;-70
2021/03/13 13:31:52;;;;;;;0.70;0.50;;;;;;;;;;5031605;28;20389;-70
2021/03/13 13:34:18;;;;;;;0.70;0.60;;;;;;;;;;5031222;28;20389;-71
2021/03/13 13:36:44;;;;;;;0.70;0.50;;;;;;;;;;5035418;28;20470;-73
2021/03/13 13:39:10;;;;;;;0.90;0.70;;;;;;;;;;5051554;28;20420;-70
2021/03/13 13:41:36;;;;;;;0.70;0.43;;;;;;;;;;5051586;28;20403;-69
2021/03/13 13:44:02;;;;;;;0.80;0.50;;;;;;;;;;5051519;28;20424;-72
2021/03/13 13:46:31;;;;;;;3.10;2.80;;;;;;;;;;5034068;28;20527;-71
2021/03/13 13:48:57;;;;;;;0.70;0.40;;;;;;;;;;5037671;28;20477;-72
2021/03/13 13:51:23;;;;;;;0.70;0.50;;;;;;;;;;5050764;28;20395;-70
2021/03/13 13:53:49;;;;;;;0.70;0.50;;;;;;;;;;5033426;28;20445;-70
2021/03/13 13:56:15;;;;;;;0.70;0.50;;;;;;;;;;5051326;28;20407;-70
2021/03/13 13:58:41;;;;;;;0.80;0.70;;;;;;;;;;5051292;28;20380;-71
2021/03/13 14:01:07;;;;;;;2.77;2.30;;;;;;;;;;5033125;28;20512;-71
2021/03/13 14:03:33;;;;;;;1.30;1.20;;;;;;;;;;5051279;28;20462;-71
2021/03/13 14:05:59;;;;;;;0.70;0.50;;;;;;;;;;5051324;28;20387;-71
2021/03/13 14:08:25;;;;;;;0.70;0.50;;;;;;;;;;5051364;28;20484;-71
2021/03/13 14:10:51;;;;;;;0.70;0.50;;;;;;;;;;5050998;28;20422;-70
2021/03/13 14:13:17;;;;;;;0.70;0.47;;;;;;;;;;5050956;28;20412;-71
2021/03/13 14:15:43;;;;;;;0.80;0.50;;;;;;;;;;5032529;28;20522;-70
2021/03/13 14:18:12;;;;;;;0.70;0.50;;;;;;;;;;5051262;28;20403;-70
2021/03/13 14:20:40;;;;;;;0.70;0.50;;;;;;;;;;5050387;28;20428;-70
2021/03/13 14:23:06;;;;;;;0.70;0.40;;;;;;;;;;5051109;28;20434;-70
2021/03/13 14:25:32;;;;;;;0.70;0.50;;;;;;;;;;5050860;28;20762;-70
2021/03/13 14:27:58;;;;;;;0.70;0.50;;;;;;;;;;5051462;28;20399;-70
2021/03/13 14:30:24;;;;;;;0.70;0.40;;;;;;;;;;5050750;28;20426;-70
2021/03/13 14:32:50;;;;;;;0.70;0.50;;;;;;;;;;5050918;28;20437;-70
2021/03/13 14:35:18;;;;;;;0.70;0.50;;;;;;;;;;5051142;28;20402;-70
2021/03/13 14:37:44;;;;;;;0.70;0.40;;;;;;;;;;5051337;28;20643;-70
2021/03/13 14:40:11;;;;;;;0.70;0.47;;;;;;;;;;5051262;28;20434;-72
2021/03/13 14:42:38;;;;;;;0.70;0.40;;;;;;;;;;5050405;28;20807;-69
2021/03/13 14:45:04;;;;;;;0.70;0.50;;;;;;;;;;5050742;28;20410;-70
2021/03/13 14:47:30;;;;;;;0.70;0.60;;;;;;;;;;5050481;28;20898;-71